createdAt,value
2023-02-11T00:02:10.988Z,40.87
2023-02-11T00:04:38.774Z,38.73
2023-02-11T00:07:06.561Z,46.57
2023-02-11T00:09:34.371Z,47.70
2023-02-11T00:12:02.170Z,41.73
2023-02-11T00:14:31.311Z,44.60
2023-02-11T00:16:59.112Z,46.43
2023-02-11T00:19:26.986Z,41.97
2023-02-11T00:21:54.706Z,50.43
2023-02-11T00:24:22.422Z,48.80
2023-02-11T00:26:50.191Z,45.40
2023-02-11T00:29:17.925Z,43.63
2023-02-11T00:31:47.112Z,45.37
2023-02-11T00:34:15.018Z,46.70
2023-02-11T00:36:42.932Z,48.00
2023-02-11T00:39:11.220Z,55.70
2023-02-11T00:41:38.949Z,52.13
2023-02-11T00:44:06.800Z,53.73
2023-02-11T00:46:34.582Z,49.20
2023-02-11T00:49:03.761Z,52.77
2023-02-11T00:51:32.293Z,41.83
2023-02-11T00:54:00.208Z,46.70
2023-02-11T00:56:28.236Z,51.63
2023-02-11T00:58:55.990Z,48.43
2023-02-11T01:01:23.950Z,43.60
2023-02-11T01:03:52.269Z,50.00
2023-02-11T01:06:21.350Z,48.53
2023-02-11T01:08:49.288Z,44.67
2023-02-11T01:11:19.614Z,54.07
2023-02-11T01:13:48.704Z,50.20
2023-02-11T01:16:16.711Z,54.57
2023-02-11T01:18:45.004Z,48.70
2023-02-11T01:21:13.084Z,44.90
2023-02-11T01:23:42.187Z,43.67
2023-02-11T01:26:09.908Z,43.43
2023-02-11T01:28:37.766Z,45.07
2023-02-11T01:31:05.864Z,46.80
2023-02-11T01:33:33.679Z,42.17
2023-02-11T01:36:02.846Z,45.83
2023-02-11T01:38:30.932Z,45.17
2023-02-11T01:41:02.481Z,41.70
2023-02-11T01:43:33.639Z,56.40
2023-02-11T01:46:06.263Z,50.80
2023-02-11T01:48:37.291Z,45.07
2023-02-11T01:51:09.947Z,46.87
2023-02-11T01:53:56.839Z,50.27
2023-02-11T01:56:45.415Z,45.87
2023-02-11T01:59:17.995Z,50.37
2023-02-11T02:01:51.903Z,49.53
2023-02-11T02:04:21.980Z,56.20
2023-02-11T02:06:55.989Z,47.57
2023-02-11T02:09:27.694Z,50.93
2023-02-11T02:11:56.900Z,49.57
2023-02-11T02:14:24.619Z,53.20
2023-02-11T02:16:52.413Z,45.43
2023-02-11T02:19:48.789Z,55.00
2023-02-11T02:22:44.729Z,51.03
2023-02-11T02:25:27.681Z,46.30
2023-02-11T02:28:06.273Z,54.93
2023-02-11T02:30:58.757Z,51.10
2023-02-11T02:33:45.971Z,46.93
2023-02-11T02:36:20.270Z,54.40
2023-02-11T02:38:53.896Z,48.30
2023-02-11T02:41:25.556Z,47.47
2023-02-11T02:43:54.448Z,56.20
2023-02-11T02:46:25.115Z,56.57
2023-02-11T02:48:55.974Z,55.83
2023-02-11T02:51:46.421Z,47.20
2023-02-11T02:54:35.835Z,53.50
2023-02-11T02:57:15.868Z,46.57
2023-02-11T02:59:57.904Z,50.73
2023-02-11T03:02:30.074Z,42.80
2023-02-11T03:05:07.177Z,46.00
2023-02-11T03:07:42.720Z,46.60
2023-02-11T03:10:14.350Z,56.50
2023-02-11T03:12:44.846Z,48.43
2023-02-11T03:15:14.678Z,44.27
2023-02-11T03:17:46.835Z,46.37
2023-02-11T03:20:18.704Z,44.97
2023-02-11T03:22:50.574Z,45.10
2023-02-11T03:25:18.817Z,45.97
2023-02-11T03:27:50.864Z,42.17
2023-02-11T03:30:23.014Z,41.37
2023-02-11T03:32:54.684Z,42.00
2023-02-11T03:35:28.073Z,43.70
2023-02-11T03:38:01.211Z,42.70
2023-02-11T03:40:33.237Z,40.50
2023-02-11T03:43:04.600Z,43.30
2023-02-11T03:45:32.514Z,41.27
2023-02-11T03:48:03.190Z,42.80
2023-02-11T03:50:34.338Z,40.90
2023-02-11T03:53:03.540Z,42.73
2023-02-11T03:55:34.576Z,44.20
2023-02-11T03:58:02.397Z,41.13
2023-02-11T04:00:34.914Z,41.23
2023-02-11T04:03:02.922Z,40.23
2023-02-11T04:05:32.656Z,41.70
2023-02-11T04:08:00.428Z,40.00
2023-02-11T04:10:28.201Z,46.03
2023-02-11T04:12:56.105Z,41.73
2023-02-11T04:15:24.296Z,41.27
2023-02-11T04:17:52.512Z,40.50
2023-02-11T04:20:20.521Z,40.30
2023-02-11T04:22:49.636Z,39.83
2023-02-11T04:25:17.387Z,39.50
2023-02-11T04:27:45.154Z,37.97
2023-02-11T04:30:13.815Z,37.43
2023-02-11T04:32:41.612Z,38.87
2023-02-11T04:35:09.468Z,37.20
2023-02-11T04:37:37.307Z,33.67
2023-02-11T04:40:07.598Z,38.60
2023-02-11T04:42:35.386Z,36.30
2023-02-11T04:45:03.123Z,31.67
2023-02-11T04:47:30.894Z,38.10
2023-02-11T04:49:58.702Z,37.07
2023-02-11T04:52:26.452Z,36.80
2023-02-11T04:54:54.209Z,42.40
2023-02-11T04:57:23.302Z,32.17
2023-02-11T04:59:50.994Z,33.27
2023-02-11T05:02:18.861Z,36.30
2023-02-11T05:04:46.696Z,32.37
2023-02-11T05:07:14.496Z,29.80
2023-02-11T05:09:42.341Z,32.00
2023-02-11T05:12:10.137Z,33.30
2023-02-11T05:14:39.228Z,25.33
2023-02-11T05:17:07.027Z,29.17
2023-02-11T05:19:34.994Z,30.30
2023-02-11T05:22:03.764Z,28.50
2023-02-11T05:24:32.055Z,24.37
2023-02-11T05:26:59.977Z,23.30
2023-02-11T05:29:27.789Z,27.10
2023-02-11T05:31:56.894Z,26.57
2023-02-11T05:34:24.712Z,27.70
2023-02-11T05:36:52.454Z,24.83
2023-02-11T05:39:20.175Z,26.20
2023-02-11T05:41:47.945Z,27.37
2023-02-11T05:44:15.717Z,24.77
2023-02-11T05:46:43.526Z,20.97
2023-02-11T05:49:12.668Z,23.83
2023-02-11T05:51:40.403Z,22.83
2023-02-11T05:54:08.120Z,24.50
2023-02-11T05:56:35.888Z,22.80
2023-02-11T05:59:03.659Z,21.20
2023-02-11T06:01:31.446Z,20.40
2023-02-11T06:03:59.212Z,21.00
2023-02-11T06:06:29.150Z,21.40
2023-02-11T06:08:57.242Z,22.93
2023-02-11T06:11:25.133Z,17.43
2023-02-11T06:13:52.961Z,18.77
2023-02-11T06:16:20.739Z,17.40
2023-02-11T06:18:48.527Z,17.07
2023-02-11T06:21:16.278Z,16.83
2023-02-11T06:23:45.407Z,18.33
2023-02-11T06:26:20.520Z,17.73
2023-02-11T06:28:48.625Z,16.73
2023-02-11T06:31:17.366Z,16.80
2023-02-11T06:33:45.355Z,20.17
2023-02-11T06:36:15.697Z,18.80
2023-02-11T06:38:46.297Z,17.40
2023-02-11T06:41:15.624Z,19.97
2023-02-11T06:43:43.863Z,18.13
2023-02-11T06:46:11.637Z,21.67
2023-02-11T06:48:39.673Z,24.03
2023-02-11T06:51:09.394Z,24.60
2023-02-11T06:53:38.778Z,20.80
2023-02-11T06:56:10.509Z,22.27
2023-02-11T06:58:38.872Z,25.27
2023-02-11T07:01:08.075Z,27.40
2023-02-11T07:03:37.114Z,27.43
2023-02-11T07:06:05.529Z,30.20
2023-02-11T07:08:34.102Z,34.07
2023-02-11T07:11:02.321Z,25.93
2023-02-11T07:13:31.350Z,36.30
2023-02-11T07:15:59.135Z,33.53
2023-02-11T07:18:26.888Z,33.07
2023-02-11T07:20:54.612Z,30.30
2023-02-11T07:23:22.329Z,34.33
2023-02-11T07:25:50.350Z,33.13
2023-02-11T07:28:18.317Z,35.80
2023-02-11T07:30:47.393Z,42.90
2023-02-11T07:33:15.133Z,39.00
2023-02-11T07:35:42.852Z,38.40
2023-02-11T07:38:10.839Z,37.60
2023-02-11T07:40:38.539Z,39.63
2023-02-11T07:43:06.266Z,44.37
2023-02-11T07:45:33.953Z,44.43
2023-02-11T07:48:03.004Z,41.57
2023-02-11T07:50:30.782Z,46.77
2023-02-11T07:52:58.476Z,40.77
2023-02-11T07:55:26.238Z,47.87
2023-02-11T07:57:53.961Z,42.90
2023-02-11T08:00:22.096Z,41.40
2023-02-11T08:02:49.833Z,38.70
2023-02-11T08:05:19.238Z,42.20
2023-02-11T08:07:46.999Z,44.93
2023-02-11T08:10:14.720Z,40.80
2023-02-11T08:12:42.414Z,40.30
2023-02-11T08:15:10.701Z,42.50
2023-02-11T08:17:38.913Z,40.53
2023-02-11T08:20:07.809Z,43.47
2023-02-11T08:22:37.910Z,40.33
2023-02-11T08:25:06.273Z,43.30
2023-02-11T08:27:34.425Z,38.73
2023-02-11T08:30:02.283Z,43.20
2023-02-11T08:32:30.009Z,43.60
2023-02-11T08:34:57.717Z,40.37
2023-02-11T08:37:25.505Z,42.03
2023-02-11T08:39:54.577Z,47.20
2023-02-11T08:42:22.337Z,40.43
2023-02-11T08:44:50.069Z,39.00
2023-02-11T08:47:17.931Z,45.67
2023-02-11T08:49:45.648Z,41.97
2023-02-11T08:52:13.369Z,41.07
2023-02-11T08:54:41.080Z,52.50
2023-02-11T08:57:10.096Z,44.67
2023-02-11T08:59:39.945Z,39.97
2023-02-11T09:02:12.669Z,40.30
2023-02-11T09:04:40.460Z,42.10
2023-02-11T09:07:08.452Z,44.27
2023-02-11T09:09:36.844Z,40.47
2023-02-11T09:12:04.956Z,44.37
2023-02-11T09:14:34.064Z,44.83
2023-02-11T09:17:01.868Z,45.07
2023-02-11T09:19:29.728Z,37.93
2023-02-11T09:21:57.707Z,41.23
2023-02-11T09:24:25.434Z,38.70
2023-02-11T09:26:53.137Z,36.17
2023-02-11T09:29:20.895Z,39.00
2023-02-11T09:31:50.320Z,35.13
2023-02-11T09:34:18.349Z,37.90
2023-02-11T09:36:46.134Z,41.57
2023-02-11T09:39:16.892Z,36.73
2023-02-11T09:42:02.540Z,38.57
2023-02-11T09:44:34.004Z,29.63
2023-02-11T09:47:05.931Z,37.67
2023-02-11T09:49:40.832Z,33.23
2023-02-11T09:52:20.083Z,39.47
2023-02-11T09:54:55.617Z,37.70
2023-02-11T09:57:28.986Z,37.00
2023-02-11T09:59:57.979Z,41.57
2023-02-11T10:02:35.255Z,36.53
2023-02-11T10:05:29.685Z,41.30
2023-02-11T10:08:03.860Z,37.83
2023-02-11T10:10:45.362Z,35.70
2023-02-11T10:13:45.647Z,36.07
2023-02-11T10:16:29.549Z,39.43
2023-02-11T10:19:23.458Z,33.30
2023-02-11T10:21:59.645Z,36.17
2023-02-11T10:24:29.014Z,41.37
2023-02-11T10:26:56.981Z,40.57
2023-02-11T10:29:36.514Z,34.53
2023-02-11T10:32:14.316Z,31.07
2023-02-11T10:34:43.657Z,36.60
2023-02-11T10:37:14.493Z,38.03
2023-02-11T10:39:42.488Z,33.20
2023-02-11T10:42:13.225Z,37.43
2023-02-11T10:44:44.435Z,31.70
2023-02-11T10:47:16.861Z,36.20
2023-02-11T10:49:47.724Z,33.37
2023-02-11T10:52:23.984Z,34.57
2023-02-11T10:55:16.723Z,37.13
2023-02-11T10:57:53.211Z,38.33
2023-02-11T11:00:37.843Z,30.73
2023-02-11T11:03:15.594Z,35.27
2023-02-11T11:05:50.341Z,35.43
2023-02-11T11:08:19.306Z,35.30
2023-02-11T11:10:49.034Z,37.13
2023-02-11T11:13:28.864Z,29.93
2023-02-11T11:16:23.413Z,33.37
2023-02-11T11:18:52.634Z,34.40
2023-02-11T11:21:25.055Z,31.43
2023-02-11T11:23:56.412Z,32.77
2023-02-11T11:26:26.234Z,33.57
2023-02-11T11:29:02.472Z,30.23
2023-02-11T11:31:35.427Z,31.20
2023-02-11T11:34:17.810Z,32.97
2023-02-11T11:36:46.921Z,29.27
2023-02-11T11:39:24.494Z,30.80
2023-02-11T11:41:55.878Z,29.80
2023-02-11T11:44:32.487Z,29.83
2023-02-11T11:47:25.571Z,31.70
2023-02-11T11:50:15.826Z,33.77
2023-02-11T11:52:55.198Z,31.83
2023-02-11T11:55:26.291Z,34.07
2023-02-11T11:57:54.047Z,31.63
2023-02-11T12:00:35.810Z,30.87
2023-02-11T12:03:35.892Z,31.37
2023-02-11T12:06:14.509Z,26.33
2023-02-11T12:08:53.244Z,27.63
2023-02-11T12:11:27.130Z,35.10
2023-02-11T12:14:07.140Z,25.60
2023-02-11T12:16:45.286Z,25.50
2023-02-11T12:19:33.156Z,25.70
2023-02-11T12:22:10.473Z,25.30
2023-02-11T12:24:59.983Z,34.50
2023-02-11T12:27:42.907Z,24.50
2023-02-11T12:30:23.611Z,26.77
2023-02-11T12:33:00.808Z,26.57
2023-02-11T12:35:41.268Z,26.77
2023-02-11T12:38:34.977Z,29.00
2023-02-11T12:41:16.010Z,19.10
2023-02-11T12:43:44.373Z,24.70
2023-02-11T12:46:38.111Z,21.57
2023-02-11T12:49:22.343Z,20.80
2023-02-11T12:52:09.317Z,19.63
2023-02-11T12:54:41.077Z,21.70
2023-02-11T12:57:19.242Z,23.90
2023-02-11T12:59:56.491Z,24.77
2023-02-11T13:02:34.828Z,25.13
2023-02-11T13:05:12.589Z,26.30
2023-02-11T13:07:45.925Z,25.80
2023-02-11T13:10:25.335Z,24.63
2023-02-11T13:13:13.636Z,25.77
2023-02-11T13:15:43.484Z,24.70
2023-02-11T13:18:25.640Z,24.73
2023-02-11T13:21:00.659Z,22.53
2023-02-11T13:23:40.542Z,24.00
2023-02-11T13:26:14.149Z,27.00
2023-02-11T13:28:49.732Z,21.93
2023-02-11T13:31:20.215Z,27.40
2023-02-11T13:33:49.779Z,27.97
2023-02-11T13:36:25.977Z,23.37
2023-02-11T13:39:03.045Z,22.80
2023-02-11T13:41:34.287Z,25.88
2023-02-11T13:44:22.345Z,23.43
2023-02-11T13:46:54.972Z,23.80
2023-02-11T13:49:26.302Z,24.53
2023-02-11T13:51:55.548Z,24.17
2023-02-11T13:54:35.283Z,23.60
2023-02-11T13:57:36.597Z,22.07
2023-02-11T14:00:49.497Z,22.90
2023-02-11T14:03:49.190Z,23.67
2023-02-11T14:06:43.356Z,27.13
2023-02-11T14:09:37.312Z,23.57
2023-02-11T14:12:35.332Z,24.50
2023-02-11T14:15:38.902Z,28.77
2023-02-11T14:18:55.799Z,24.77
2023-02-11T14:21:32.700Z,23.07
2023-02-11T14:24:33.649Z,24.47
2023-02-11T14:27:05.991Z,27.37
2023-02-11T14:29:41.576Z,24.80
2023-02-11T14:32:25.050Z,28.97
2023-02-11T14:35:00.546Z,25.90
2023-02-11T14:37:40.012Z,27.93
2023-02-11T14:40:18.790Z,24.63
2023-02-11T14:42:46.898Z,27.90
2023-02-11T14:45:20.673Z,27.47
2023-02-11T14:47:56.453Z,26.67
2023-02-11T14:50:27.863Z,25.57
2023-02-11T14:52:56.623Z,24.57
2023-02-11T14:55:31.932Z,23.30
2023-02-11T14:58:13.789Z,26.30
2023-02-11T15:00:49.787Z,26.20
2023-02-11T15:03:44.283Z,26.87
2023-02-11T15:06:18.369Z,23.13
2023-02-11T15:08:49.499Z,22.80
2023-02-11T15:11:20.130Z,24.57
2023-02-11T15:13:50.207Z,27.70
2023-02-11T15:16:23.142Z,23.97
2023-02-11T15:18:54.967Z,25.47
2023-02-11T15:21:25.733Z,23.10
2023-02-11T15:23:58.926Z,22.90
2023-02-11T15:26:26.920Z,26.30
2023-02-11T15:28:56.028Z,25.47
2023-02-11T15:31:25.059Z,28.00
2023-02-11T15:33:55.063Z,24.37
2023-02-11T15:36:28.640Z,29.77
2023-02-11T15:39:19.257Z,24.60
2023-02-11T15:41:47.229Z,20.80
2023-02-11T15:44:33.232Z,25.77
2023-02-11T15:47:01.379Z,20.90
2023-02-11T15:49:30.626Z,22.27
2023-02-11T15:51:58.991Z,28.97
2023-02-11T15:54:29.417Z,24.30
2023-02-11T15:57:02.436Z,22.90
2023-02-11T15:59:32.605Z,24.47
2023-02-11T16:02:08.112Z,20.43
2023-02-11T16:04:38.086Z,21.47
2023-02-11T16:07:06.533Z,24.90
2023-02-11T16:09:35.871Z,20.50
2023-02-11T16:12:07.435Z,25.07
2023-02-11T16:14:39.174Z,23.67
2023-02-11T16:17:10.291Z,24.20
2023-02-11T16:19:44.848Z,24.40
2023-02-11T16:22:18.391Z,21.80
2023-02-11T16:24:48.559Z,22.03
2023-02-11T16:27:23.469Z,26.43
2023-02-11T16:29:52.456Z,26.83
2023-02-11T16:32:22.304Z,32.23
2023-02-11T16:34:52.197Z,28.13
2023-02-11T16:37:20.219Z,26.00
2023-02-11T16:39:48.004Z,25.30
2023-02-11T16:42:15.761Z,25.70
2023-02-11T16:44:43.504Z,29.70
2023-02-11T16:47:20.387Z,25.47
2023-02-11T16:49:48.140Z,28.17
2023-02-11T16:52:19.119Z,25.40
2023-02-11T16:54:47.064Z,31.97
2023-02-11T16:57:16.931Z,25.17
2023-02-11T16:59:45.350Z,27.67
2023-02-11T17:02:23.887Z,28.53
2023-02-11T17:04:53.376Z,25.63
2023-02-11T17:07:22.901Z,29.10
2023-02-11T17:09:51.699Z,24.83
2023-02-11T17:12:19.495Z,24.00
2023-02-11T17:14:47.488Z,29.30
2023-02-11T17:17:15.514Z,23.20
2023-02-11T17:19:43.606Z,28.30
2023-02-11T17:22:12.191Z,28.43
2023-02-11T17:24:41.832Z,30.73
2023-02-11T17:27:11.826Z,29.70
2023-02-11T17:29:39.648Z,28.40
2023-02-11T17:32:07.812Z,31.87
2023-02-11T17:34:35.645Z,31.83
2023-02-11T17:37:08.889Z,34.70
2023-02-11T17:39:36.907Z,27.90
2023-02-11T17:42:07.101Z,34.63
2023-02-11T17:44:35.057Z,32.80
2023-02-11T17:47:02.913Z,28.40
2023-02-11T17:49:30.705Z,30.40
2023-02-11T17:51:58.549Z,31.60
2023-02-11T17:54:26.467Z,30.73
2023-02-11T17:56:57.837Z,30.10
2023-02-11T17:59:31.543Z,33.20
2023-02-11T18:01:59.296Z,30.77
2023-02-11T18:04:27.094Z,30.50
2023-02-11T18:06:54.934Z,33.67
2023-02-11T18:09:22.692Z,35.07
2023-02-11T18:11:52.450Z,35.43
2023-02-11T18:14:21.065Z,40.80
2023-02-11T18:16:52.629Z,34.00
2023-02-11T18:19:20.753Z,43.90
2023-02-11T18:21:50.280Z,34.77
2023-02-11T18:24:18.922Z,33.60
2023-02-11T18:26:46.664Z,34.50
2023-02-11T18:29:14.421Z,32.63
2023-02-11T18:31:42.194Z,30.93
2023-02-11T18:34:12.509Z,31.77
2023-02-11T18:36:40.262Z,33.47
2023-02-11T18:39:08.092Z,35.90
2023-02-11T18:41:35.834Z,30.60
2023-02-11T18:44:05.212Z,37.73
2023-02-11T18:46:33.058Z,35.73
2023-02-11T18:49:00.853Z,30.00
2023-02-11T18:51:32.258Z,32.80
2023-02-11T18:54:01.149Z,32.17
2023-02-11T18:56:28.884Z,37.63
2023-02-11T18:58:57.289Z,35.23
2023-02-11T19:01:27.338Z,31.67
2023-02-11T19:03:57.190Z,33.93
2023-02-11T19:06:26.724Z,34.27
2023-02-11T19:08:59.523Z,34.57
2023-02-11T19:11:42.850Z,30.33
2023-02-11T19:14:11.097Z,33.00
2023-02-11T19:16:39.687Z,34.40
2023-02-11T19:19:08.085Z,32.40
2023-02-11T19:21:36.551Z,33.27
2023-02-11T19:24:08.646Z,34.43
2023-02-11T19:26:37.665Z,37.60
2023-02-11T19:29:06.702Z,35.40
2023-02-11T19:31:35.129Z,32.30
2023-02-11T19:34:03.889Z,29.97
2023-02-11T19:36:31.794Z,32.53
2023-02-11T19:39:01.236Z,33.00
2023-02-11T19:41:31.117Z,36.23
2023-02-11T19:43:58.962Z,40.27
2023-02-11T19:46:28.733Z,33.53
2023-02-11T19:48:56.705Z,34.80
2023-02-11T19:51:24.416Z,39.00
2023-02-11T19:53:52.209Z,32.73
2023-02-11T19:56:20.990Z,37.20
2023-02-11T19:58:50.197Z,40.37
2023-02-11T20:01:20.542Z,40.63
2023-02-11T20:03:52.595Z,38.80
2023-02-11T20:06:23.433Z,41.40
2023-02-11T20:08:58.206Z,36.90
2023-02-11T20:11:27.932Z,35.07
2023-02-11T20:13:57.405Z,34.20
2023-02-11T20:16:40.793Z,41.40
2023-02-11T20:19:17.535Z,38.07
2023-02-11T20:21:47.081Z,35.57
2023-02-11T20:24:15.418Z,35.27
2023-02-11T20:26:43.377Z,42.33
2023-02-11T20:29:12.688Z,42.63
2023-02-11T20:31:40.516Z,39.20
2023-02-11T20:34:08.314Z,36.47
2023-02-11T20:36:38.009Z,36.97
2023-02-11T20:39:07.206Z,42.50
2023-02-11T20:41:39.554Z,37.10
2023-02-11T20:44:10.857Z,38.80
2023-02-11T20:46:42.236Z,35.87
2023-02-11T20:49:12.311Z,31.20
2023-02-11T20:51:40.621Z,32.97
2023-02-11T20:54:16.277Z,35.40
2023-02-11T20:56:47.439Z,31.80
2023-02-11T20:59:16.577Z,34.60
2023-02-11T21:01:47.386Z,41.10
2023-02-11T21:04:16.952Z,34.60
2023-02-11T21:06:47.119Z,30.10
2023-02-11T21:09:16.869Z,33.77
2023-02-11T21:11:44.739Z,29.97
2023-02-11T21:14:13.357Z,36.37
2023-02-11T21:16:41.760Z,35.00
2023-02-11T21:19:10.952Z,31.47
2023-02-11T21:21:39.717Z,32.33
2023-02-11T21:24:09.375Z,36.10
2023-02-11T21:26:37.948Z,31.07
2023-02-11T21:29:07.160Z,32.40
2023-02-11T21:31:36.963Z,37.40
2023-02-11T21:34:05.533Z,33.07
2023-02-11T21:36:35.021Z,36.93
2023-02-11T21:39:03.875Z,37.10
2023-02-11T21:41:31.922Z,37.13
2023-02-11T21:43:59.670Z,37.27
2023-02-11T21:46:28.424Z,48.20
2023-02-11T21:48:56.346Z,36.20
2023-02-11T21:51:27.044Z,36.20
2023-02-11T21:53:57.358Z,38.20
2023-02-11T21:56:27.917Z,35.60
2023-02-11T21:58:58.743Z,38.20
2023-02-11T22:01:29.037Z,39.10
2023-02-11T22:03:57.483Z,36.97
2023-02-11T22:06:30.572Z,35.27
2023-02-11T22:09:02.501Z,35.10
2023-02-11T22:11:30.369Z,37.47
2023-02-11T22:13:59.076Z,35.40
2023-02-11T22:16:27.798Z,37.93
2023-02-11T22:18:58.347Z,34.90
2023-02-11T22:21:27.280Z,33.63
2023-02-11T22:23:56.404Z,39.27
2023-02-11T22:26:27.123Z,37.37
2023-02-11T22:28:56.609Z,35.77
2023-02-11T22:31:26.726Z,32.07
2023-02-11T22:33:54.854Z,36.67
2023-02-11T22:36:23.935Z,34.50
2023-02-11T22:38:52.163Z,36.13
2023-02-11T22:41:21.473Z,35.83
2023-02-11T22:43:50.870Z,35.00
2023-02-11T22:46:20.302Z,33.60
2023-02-11T22:48:48.655Z,36.40
2023-02-11T22:51:19.301Z,35.50
2023-02-11T22:53:51.683Z,32.53
2023-02-11T22:56:19.783Z,35.17
2023-02-11T22:58:48.285Z,37.10
2023-02-11T23:01:17.880Z,38.37
2023-02-11T23:03:46.361Z,34.43
2023-02-11T23:06:14.504Z,34.20
2023-02-11T23:08:43.268Z,32.20
2023-02-11T23:11:13.517Z,28.90
2023-02-11T23:13:45.441Z,32.83
2023-02-11T23:16:15.776Z,30.33
2023-02-11T23:18:46.511Z,33.30
2023-02-11T23:21:17.223Z,32.43
2023-02-11T23:23:46.216Z,34.23
2023-02-11T23:26:16.600Z,32.87
2023-02-11T23:28:45.876Z,33.30
2023-02-11T23:31:15.660Z,34.00
2023-02-11T23:33:44.968Z,31.10
2023-02-11T23:36:12.874Z,29.13
2023-02-11T23:38:40.640Z,27.70
2023-02-11T23:41:08.721Z,29.77
2023-02-11T23:43:36.630Z,32.90
2023-02-11T23:46:05.151Z,31.80
2023-02-11T23:48:33.679Z,30.03
2023-02-11T23:51:03.245Z,26.03
2023-02-11T23:53:30.983Z,31.07
2023-02-11T23:55:59.297Z,28.20
2023-02-11T23:58:27.044Z,28.23
